createdAt,value
2023-08-08T00:02:05.442Z,2.00
2023-08-08T00:04:32.775Z,1.88
2023-08-08T00:07:00.065Z,1.88
2023-08-08T00:09:27.369Z,1.90
2023-08-08T00:11:54.681Z,1.73
2023-08-08T00:14:21.978Z,1.80
2023-08-08T00:16:50.580Z,1.98
2023-08-08T00:19:18.329Z,1.98
2023-08-08T00:21:45.628Z,1.80
2023-08-08T00:24:12.927Z,2.28
2023-08-08T00:26:40.221Z,1.70
2023-08-08T00:29:07.594Z,2.10
2023-08-08T00:31:35.017Z,2.15
2023-08-08T00:34:03.667Z,1.80
2023-08-08T00:36:30.944Z,1.80
2023-08-08T00:38:58.246Z,1.83
2023-08-08T00:41:25.537Z,1.85
2023-08-08T00:43:52.814Z,1.90
2023-08-08T00:46:22.992Z,1.80
2023-08-08T00:48:50.646Z,2.10
2023-08-08T00:51:19.284Z,1.88
2023-08-08T00:53:46.646Z,1.70
2023-08-08T00:56:14.892Z,2.08
2023-08-08T00:58:42.184Z,1.95
2023-08-08T01:01:10.010Z,1.90
2023-08-08T01:03:37.432Z,1.80
2023-08-08T01:06:05.752Z,2.38
2023-08-08T01:08:36.017Z,2.10
2023-08-08T01:11:03.514Z,2.13
2023-08-08T01:13:30.821Z,2.00
2023-08-08T01:15:58.098Z,1.85
2023-08-08T01:18:25.372Z,1.80
2023-08-08T01:20:52.691Z,1.75
2023-08-08T01:23:21.163Z,2.03
2023-08-08T01:25:49.956Z,2.10
2023-08-08T01:28:17.252Z,1.92
2023-08-08T01:30:45.463Z,2.00
2023-08-08T01:33:12.753Z,1.90
2023-08-08T01:35:41.338Z,1.85
2023-08-08T01:38:10.762Z,1.98
2023-08-08T01:40:38.088Z,2.13
2023-08-08T01:43:08.035Z,1.83
2023-08-08T01:45:37.250Z,1.80
2023-08-08T01:48:07.873Z,2.27
2023-08-08T01:50:35.202Z,1.92
2023-08-08T01:53:02.515Z,1.80
2023-08-08T01:55:29.830Z,1.75
2023-08-08T01:57:57.133Z,1.88
2023-08-08T02:00:25.808Z,1.95
2023-08-08T02:02:53.747Z,1.63
2023-08-08T02:05:21.182Z,1.80
2023-08-08T02:07:48.524Z,2.22
2023-08-08T02:10:15.888Z,2.17
2023-08-08T02:12:43.199Z,2.13
2023-08-08T02:15:10.639Z,1.60
2023-08-08T02:17:39.350Z,2.10
2023-08-08T02:20:07.396Z,1.85
2023-08-08T02:22:34.692Z,2.10
2023-08-08T02:25:02.041Z,2.00
2023-08-08T02:27:29.371Z,1.83
2023-08-08T02:29:58.289Z,2.08
2023-08-08T02:32:25.656Z,1.90
2023-08-08T02:34:54.299Z,2.10
2023-08-08T02:37:21.605Z,2.20
2023-08-08T02:39:48.901Z,1.83
2023-08-08T02:42:16.181Z,1.80
2023-08-08T02:44:43.489Z,2.00
2023-08-08T02:47:10.777Z,2.22
2023-08-08T02:49:38.092Z,1.98
2023-08-08T02:52:07.060Z,1.90
2023-08-08T02:54:34.371Z,1.90
2023-08-08T02:57:01.902Z,1.77
2023-08-08T02:59:30.026Z,1.73
2023-08-08T03:01:57.331Z,1.90
2023-08-08T03:04:24.686Z,1.83
2023-08-08T03:06:52.024Z,1.92
2023-08-08T03:09:20.639Z,1.60
2023-08-08T03:11:47.972Z,1.77
2023-08-08T03:14:15.321Z,1.63
2023-08-08T03:16:42.654Z,1.80
2023-08-08T03:19:09.951Z,1.80
2023-08-08T03:21:37.345Z,1.73
2023-08-08T03:24:04.929Z,2.00
2023-08-08T03:26:33.565Z,1.70
2023-08-08T03:29:00.932Z,1.70
2023-08-08T03:31:28.433Z,1.83
2023-08-08T03:33:55.795Z,1.73
2023-08-08T03:36:23.118Z,1.83
2023-08-08T03:38:51.430Z,1.52
2023-08-08T03:41:18.799Z,1.60
2023-08-08T03:43:47.416Z,1.70
2023-08-08T03:46:14.700Z,1.50
2023-08-08T03:48:41.984Z,1.75
2023-08-08T03:51:09.293Z,1.90
2023-08-08T03:53:36.581Z,1.50
2023-08-08T03:56:03.933Z,1.50
2023-08-08T03:58:31.250Z,1.70
2023-08-08T04:00:59.888Z,1.88
2023-08-08T04:03:27.235Z,1.65
2023-08-08T04:05:54.593Z,1.60
2023-08-08T04:08:23.418Z,1.60
2023-08-08T04:10:50.878Z,1.50
2023-08-08T04:13:18.156Z,1.90
2023-08-08T04:15:46.077Z,1.50
2023-08-08T04:18:14.772Z,1.80
2023-08-08T04:20:42.083Z,1.77
2023-08-08T04:23:09.408Z,1.80
2023-08-08T04:25:36.692Z,1.70
2023-08-08T04:28:04.611Z,1.70
2023-08-08T04:30:31.932Z,1.75
2023-08-08T04:32:59.238Z,1.70
2023-08-08T04:35:27.905Z,1.75
2023-08-08T04:37:55.222Z,1.90
2023-08-08T04:40:22.562Z,1.83
2023-08-08T04:42:49.909Z,1.90
2023-08-08T04:45:17.286Z,1.92
2023-08-08T04:47:44.651Z,1.77
2023-08-08T04:50:12.008Z,1.90
2023-08-08T04:52:40.631Z,2.30
2023-08-08T04:55:08.102Z,1.85
2023-08-08T04:57:35.451Z,1.67
2023-08-08T05:00:06.184Z,1.52
2023-08-08T05:02:33.670Z,1.65
2023-08-08T05:05:01.546Z,1.73
2023-08-08T05:07:28.859Z,1.80
2023-08-08T05:09:57.499Z,1.90
2023-08-08T05:12:26.194Z,2.00
2023-08-08T05:14:53.606Z,1.70
2023-08-08T05:17:20.950Z,1.80
2023-08-08T05:19:48.269Z,1.70
2023-08-08T05:22:15.564Z,1.88
2023-08-08T05:24:42.831Z,1.98
2023-08-08T05:27:12.412Z,1.83
2023-08-08T05:29:40.431Z,1.80
2023-08-08T05:32:08.567Z,1.83
2023-08-08T05:34:35.892Z,1.80
2023-08-08T05:37:14.975Z,2.05
2023-08-08T05:39:43.704Z,1.80
2023-08-08T05:42:12.418Z,1.83
2023-08-08T05:44:39.758Z,2.08
2023-08-08T05:47:07.567Z,2.22
2023-08-08T05:49:34.870Z,2.42
2023-08-08T05:52:02.935Z,2.03
2023-08-08T05:54:30.680Z,3.13
2023-08-08T05:56:57.991Z,42.17
2023-08-08T05:59:26.646Z,43.35
2023-08-08T06:01:54.013Z,41.47
2023-08-08T06:04:21.475Z,38.63
2023-08-08T06:06:50.036Z,42.70
2023-08-08T06:09:17.842Z,38.45
2023-08-08T06:11:45.116Z,28.10
2023-08-08T06:14:12.427Z,25.50
2023-08-08T06:16:41.089Z,27.15
2023-08-08T06:19:08.459Z,28.67
2023-08-08T06:21:35.848Z,18.63
2023-08-08T06:24:03.280Z,21.63
2023-08-08T06:26:30.982Z,22.20
2023-08-08T06:28:58.294Z,20.55
2023-08-08T06:31:25.910Z,19.95
2023-08-08T06:33:54.642Z,19.55
2023-08-08T06:36:21.949Z,18.90
2023-08-08T06:38:49.240Z,16.90
2023-08-08T06:41:16.563Z,16.85
2023-08-08T06:43:44.119Z,11.65
2023-08-08T06:46:11.541Z,15.30
2023-08-08T06:48:38.914Z,15.23
2023-08-08T06:51:07.523Z,15.55
2023-08-08T06:53:34.814Z,14.75
2023-08-08T06:56:02.097Z,14.32
2023-08-08T06:58:29.380Z,8.60
2023-08-08T07:00:56.675Z,8.02
2023-08-08T07:03:24.038Z,7.70
2023-08-08T07:05:52.983Z,7.95
2023-08-08T07:08:21.705Z,7.90
2023-08-08T07:10:49.093Z,7.82
2023-08-08T07:13:16.583Z,7.45
2023-08-08T07:15:43.978Z,6.93
2023-08-08T07:18:11.642Z,7.18
2023-08-08T07:20:40.220Z,7.35
2023-08-08T07:23:07.562Z,6.57
2023-08-08T07:25:36.224Z,6.90
2023-08-08T07:28:03.632Z,6.63
2023-08-08T07:30:30.953Z,6.30
2023-08-08T07:32:58.275Z,6.40
2023-08-08T07:35:25.579Z,6.88
2023-08-08T07:37:52.913Z,6.00
2023-08-08T07:40:20.495Z,6.13
2023-08-08T07:42:49.228Z,5.70
2023-08-08T07:45:16.625Z,5.43
2023-08-08T07:47:44.075Z,6.07
2023-08-08T07:50:11.541Z,5.80
2023-08-08T07:52:38.877Z,4.97
2023-08-08T07:55:06.572Z,5.32
2023-08-08T07:57:35.674Z,5.15
2023-08-08T08:00:12.736Z,5.30
2023-08-08T08:02:40.229Z,5.25
2023-08-08T08:05:08.893Z,5.18
2023-08-08T08:07:36.748Z,5.25
2023-08-08T08:10:04.967Z,4.63
2023-08-08T08:12:32.502Z,5.32
2023-08-08T08:14:59.867Z,4.70
2023-08-08T08:17:29.212Z,4.68
2023-08-08T08:19:56.557Z,4.97
2023-08-08T08:22:23.829Z,4.88
2023-08-08T08:24:51.134Z,4.97
2023-08-08T08:27:18.508Z,5.30
2023-08-08T08:29:45.830Z,5.63
2023-08-08T08:32:13.165Z,5.10
2023-08-08T08:34:41.790Z,5.32
2023-08-08T08:37:09.386Z,5.63
2023-08-08T08:39:36.687Z,5.65
2023-08-08T08:42:05.861Z,5.05
2023-08-08T08:44:33.710Z,5.15
2023-08-08T08:47:01.876Z,5.55
2023-08-08T08:49:30.365Z,5.60
2023-08-08T08:51:59.259Z,5.47
2023-08-08T08:54:26.734Z,5.82
2023-08-08T08:56:54.163Z,5.57
2023-08-08T08:59:21.514Z,5.70
2023-08-08T09:01:48.820Z,5.13
2023-08-08T09:04:16.592Z,4.97
2023-08-08T09:06:43.910Z,5.28
2023-08-08T09:09:16.696Z,5.25
2023-08-08T09:11:44.799Z,4.60
2023-08-08T09:14:17.671Z,5.00
2023-08-08T09:16:45.051Z,5.40
2023-08-08T09:19:12.351Z,4.90
2023-08-08T09:21:39.638Z,5.10
2023-08-08T09:24:07.276Z,5.10
2023-08-08T09:26:36.358Z,6.00
2023-08-08T09:29:03.743Z,5.20
2023-08-08T09:31:31.058Z,5.47
2023-08-08T09:33:58.480Z,4.97
2023-08-08T09:36:26.615Z,4.57
2023-08-08T09:38:54.038Z,4.85
2023-08-08T09:41:21.939Z,5.20
2023-08-08T09:43:50.592Z,5.13
2023-08-08T09:46:17.909Z,5.28
2023-08-08T09:48:45.227Z,4.97
2023-08-08T09:51:12.520Z,4.90
2023-08-08T09:53:39.826Z,4.70
2023-08-08T09:56:07.279Z,4.90
2023-08-08T09:58:34.608Z,4.72
2023-08-08T10:01:03.517Z,4.90
2023-08-08T10:03:30.980Z,5.00
2023-08-08T10:05:58.338Z,4.47
2023-08-08T10:08:25.764Z,5.03
2023-08-08T10:10:53.069Z,5.57
2023-08-08T10:13:23.515Z,4.45
2023-08-08T10:15:50.819Z,4.90
2023-08-08T10:18:19.464Z,4.53
2023-08-08T10:20:48.289Z,4.78
2023-08-08T10:23:16.397Z,4.70
2023-08-08T10:25:45.547Z,4.55
2023-08-08T10:28:26.181Z,5.13
2023-08-08T10:30:55.176Z,4.50
2023-08-08T10:33:24.403Z,4.47
2023-08-08T10:36:01.540Z,4.97
2023-08-08T10:38:29.151Z,4.38
2023-08-08T10:40:59.866Z,4.43
2023-08-08T10:43:27.461Z,4.22
2023-08-08T10:46:03.587Z,4.28
2023-08-08T10:48:40.676Z,3.97
2023-08-08T10:51:08.115Z,4.13
2023-08-08T10:53:35.431Z,4.68
2023-08-08T10:56:03.022Z,4.32
2023-08-08T10:58:36.881Z,4.15
2023-08-08T11:01:06.302Z,4.30
2023-08-08T11:03:33.769Z,3.70
2023-08-08T11:06:02.520Z,3.58
2023-08-08T11:08:29.804Z,3.97
2023-08-08T11:10:57.398Z,3.45
2023-08-08T11:13:24.699Z,3.90
2023-08-08T11:15:52.296Z,3.67
2023-08-08T11:18:19.672Z,3.50
2023-08-08T11:20:47.129Z,3.10
2023-08-08T11:23:15.744Z,3.55
2023-08-08T11:25:43.857Z,3.50
2023-08-08T11:28:11.648Z,4.07
2023-08-08T11:30:39.327Z,3.58
2023-08-08T11:35:36.880Z,3.30
2023-08-08T11:38:05.196Z,3.15
2023-08-08T11:40:33.826Z,3.03
2023-08-08T11:45:22.062Z,3.05
2023-08-08T11:47:50.384Z,2.83
2023-08-08T11:50:18.450Z,2.75
2023-08-08T11:52:48.460Z,2.90
2023-08-08T11:57:44.668Z,3.00
2023-08-08T12:00:13.832Z,2.85
2023-08-08T12:02:41.318Z,2.75
2023-08-08T12:05:10.010Z,2.67
2023-08-08T12:07:37.305Z,3.17
2023-08-08T12:10:05.460Z,2.72
2023-08-08T12:12:39.847Z,2.80
2023-08-08T12:17:42.222Z,2.63
2023-08-08T12:20:10.421Z,5.40
2023-08-08T12:22:37.845Z,5.70
2023-08-08T12:25:05.483Z,8.88
2023-08-08T12:27:32.802Z,7.35
2023-08-08T12:30:00.155Z,7.32
2023-08-08T12:32:29.781Z,6.50
2023-08-08T12:34:57.452Z,6.30
2023-08-08T12:37:25.276Z,6.93
2023-08-08T12:39:52.649Z,6.70
2023-08-08T12:42:19.962Z,5.28
2023-08-08T12:44:47.865Z,5.47
2023-08-08T12:47:15.925Z,4.97
2023-08-08T12:49:44.780Z,4.22
2023-08-08T12:52:12.072Z,4.32
2023-08-08T12:54:39.439Z,3.95
2023-08-08T12:57:06.819Z,3.55
2023-08-08T12:59:34.125Z,4.32
2023-08-08T13:02:01.646Z,3.53
2023-08-08T13:04:29.111Z,3.58
2023-08-08T13:06:57.699Z,3.30
2023-08-08T13:09:25.036Z,3.38
2023-08-08T13:11:52.323Z,3.50
2023-08-08T13:14:19.618Z,3.75
2023-08-08T13:16:46.999Z,3.53
2023-08-08T13:19:15.813Z,2.90
2023-08-08T13:21:43.089Z,3.40
2023-08-08T13:24:13.758Z,3.10
2023-08-08T13:26:41.092Z,2.85
2023-08-08T13:29:08.925Z,2.80
2023-08-08T13:31:36.282Z,2.85
2023-08-08T13:34:03.576Z,2.50
2023-08-08T13:36:30.923Z,3.03
2023-08-08T13:38:58.273Z,3.03
2023-08-08T13:41:26.930Z,2.45
2023-08-08T13:43:54.243Z,2.80
2023-08-08T13:46:21.619Z,2.30
2023-08-08T13:48:48.968Z,2.58
2023-08-08T13:51:16.268Z,2.78
2023-08-08T13:53:43.542Z,2.10
2023-08-08T13:56:11.890Z,2.30
2023-08-08T13:58:40.505Z,2.30
2023-08-08T14:01:07.827Z,2.30
2023-08-08T14:03:35.458Z,1.92
2023-08-08T14:06:02.829Z,1.90
2023-08-08T14:08:30.122Z,2.15
2023-08-08T14:10:57.701Z,2.00
2023-08-08T14:13:25.078Z,2.38
2023-08-08T14:15:53.736Z,2.00
2023-08-08T14:18:21.054Z,1.90
2023-08-08T14:20:48.348Z,2.10
2023-08-08T14:23:15.678Z,1.90
2023-08-08T14:25:43.377Z,2.20
2023-08-08T14:28:10.712Z,1.98
2023-08-08T14:30:38.102Z,1.80
2023-08-08T14:33:07.048Z,2.20
2023-08-08T14:35:34.533Z,1.70
2023-08-08T14:38:02.305Z,2.00
2023-08-08T14:40:29.624Z,1.70
2023-08-08T14:42:56.994Z,1.90
2023-08-08T14:45:25.029Z,1.63
2023-08-08T14:47:52.339Z,1.50
2023-08-08T14:50:21.030Z,1.70
2023-08-08T14:52:48.305Z,1.58
2023-08-08T14:55:15.734Z,1.90
2023-08-08T14:57:43.039Z,1.60
2023-08-08T15:00:13.496Z,1.83
2023-08-08T15:02:40.976Z,1.45
2023-08-08T15:05:08.770Z,1.73
2023-08-08T15:07:37.369Z,1.60
2023-08-08T15:10:04.907Z,1.50
2023-08-08T15:12:32.220Z,1.65
2023-08-08T15:14:59.537Z,1.90
2023-08-08T15:17:28.151Z,1.50
2023-08-08T15:19:55.750Z,1.70
2023-08-08T15:22:23.043Z,1.50
2023-08-08T15:24:51.718Z,1.70
2023-08-08T15:27:18.982Z,1.70
2023-08-08T15:29:46.787Z,1.42
2023-08-08T15:32:14.087Z,1.40
2023-08-08T15:34:41.463Z,1.27
2023-08-08T15:37:08.773Z,1.40
2023-08-08T15:39:36.766Z,1.50
2023-08-08T15:42:05.462Z,1.95
2023-08-08T15:44:32.760Z,1.33
2023-08-08T15:47:00.247Z,1.20
2023-08-08T15:49:27.955Z,1.33
2023-08-08T15:51:57.726Z,1.55
2023-08-08T15:54:25.110Z,1.42
2023-08-08T15:56:52.639Z,1.33
2023-08-08T15:59:22.039Z,1.40
2023-08-08T16:01:49.331Z,1.45
2023-08-08T16:04:16.762Z,1.40
2023-08-08T16:06:44.125Z,1.30
2023-08-08T16:09:11.570Z,1.40
2023-08-08T16:11:38.945Z,1.42
2023-08-08T16:14:06.258Z,1.40
2023-08-08T16:16:34.920Z,1.50
2023-08-08T16:19:02.216Z,1.33
2023-08-08T16:21:29.670Z,1.13
2023-08-08T16:23:56.982Z,1.40
2023-08-08T16:26:24.276Z,1.20
2023-08-08T16:28:51.619Z,1.20
2023-08-08T16:31:19.031Z,1.13
2023-08-08T16:33:47.795Z,1.20
2023-08-08T16:36:15.824Z,1.70
2023-08-08T16:38:43.109Z,1.25
2023-08-08T16:41:10.420Z,1.20
2023-08-08T16:43:38.034Z,1.40
2023-08-08T16:46:05.458Z,1.20
2023-08-08T16:48:32.837Z,1.20
2023-08-08T16:51:01.535Z,1.30
2023-08-08T16:53:28.882Z,1.38
2023-08-08T16:55:56.175Z,1.13
2023-08-08T16:58:23.516Z,1.20
2023-08-08T17:00:53.051Z,1.30
2023-08-08T17:03:21.855Z,1.30
2023-08-08T17:05:49.211Z,1.17
2023-08-08T17:08:17.820Z,1.00
2023-08-08T17:10:45.228Z,1.42
2023-08-08T17:13:12.516Z,1.20
2023-08-08T17:15:39.813Z,1.25
2023-08-08T17:18:07.799Z,1.27
2023-08-08T17:20:35.148Z,1.30
2023-08-08T17:23:02.437Z,1.00
2023-08-08T17:25:31.456Z,1.23
2023-08-08T17:27:58.764Z,1.35
2023-08-08T17:30:26.185Z,1.30
2023-08-08T17:32:53.541Z,1.27
2023-08-08T17:35:20.844Z,1.10
2023-08-08T17:37:48.578Z,1.40
2023-08-08T17:40:16.008Z,1.40
2023-08-08T17:42:44.675Z,1.20
2023-08-08T17:45:12.119Z,1.50
2023-08-08T17:47:39.730Z,1.42
2023-08-08T17:50:07.858Z,1.25
2023-08-08T17:52:35.203Z,1.02
2023-08-08T17:55:02.724Z,1.27
2023-08-08T17:57:30.036Z,1.35
2023-08-08T17:59:58.623Z,1.20
2023-08-08T18:02:26.054Z,1.20
2023-08-08T18:04:53.440Z,1.20
2023-08-08T18:07:22.421Z,1.23
2023-08-08T18:09:51.373Z,1.00
2023-08-08T18:12:18.926Z,1.20
2023-08-08T18:14:46.247Z,1.30
2023-08-08T18:17:14.885Z,1.30
2023-08-08T18:19:42.195Z,1.48
2023-08-08T18:22:09.503Z,1.20
2023-08-08T18:24:36.836Z,1.50
2023-08-08T18:27:04.229Z,1.20
2023-08-08T18:29:31.548Z,1.30
2023-08-08T18:31:59.140Z,1.13
2023-08-08T18:34:28.073Z,1.30
2023-08-08T18:36:55.370Z,1.20
2023-08-08T18:39:22.827Z,1.13
2023-08-08T18:41:50.491Z,1.30
2023-08-08T18:44:17.802Z,1.10
2023-08-08T18:46:46.471Z,1.23
2023-08-08T18:49:13.835Z,1.50
2023-08-08T18:51:42.531Z,1.45
2023-08-08T18:54:10.066Z,1.30
2023-08-08T18:56:37.439Z,1.20
2023-08-08T18:59:05.350Z,1.30
2023-08-08T19:01:32.729Z,1.35
2023-08-08T19:04:00.106Z,1.42
2023-08-08T19:06:27.425Z,1.20
2023-08-08T19:08:56.507Z,1.40
2023-08-08T19:11:23.826Z,1.40
2023-08-08T19:13:51.193Z,1.50
2023-08-08T19:16:18.597Z,1.23
2023-08-08T19:18:45.913Z,1.13
2023-08-08T19:21:14.008Z,1.20
2023-08-08T19:23:42.220Z,1.30
2023-08-08T19:26:10.814Z,1.30
2023-08-08T19:28:38.141Z,1.40
2023-08-08T19:31:05.479Z,1.10
2023-08-08T19:33:32.770Z,1.10
2023-08-08T19:36:01.812Z,1.30
2023-08-08T19:38:29.105Z,1.15
2023-08-08T19:40:56.458Z,1.23
2023-08-08T19:43:25.104Z,1.30
2023-08-08T19:45:54.340Z,1.35
2023-08-08T19:48:21.726Z,1.20
2023-08-08T19:50:49.068Z,1.10
2023-08-08T19:53:17.892Z,1.10
2023-08-08T19:55:45.702Z,1.45
2023-08-08T19:58:13.574Z,1.38
2023-08-08T20:00:42.224Z,1.20
2023-08-08T20:03:09.630Z,1.25
2023-08-08T20:05:36.981Z,1.27
2023-08-08T20:08:04.482Z,1.20
2023-08-08T20:10:31.776Z,1.05
2023-08-08T20:12:59.074Z,1.50
2023-08-08T20:15:26.358Z,1.30
2023-08-08T20:17:55.068Z,1.40
2023-08-08T20:20:22.407Z,1.30
2023-08-08T20:22:49.750Z,1.00
2023-08-08T20:25:17.174Z,1.33
2023-08-08T20:27:43.597Z,1.40
2023-08-08T20:30:12.356Z,1.10
2023-08-08T20:32:39.686Z,1.25
2023-08-08T20:35:08.894Z,1.60
2023-08-08T20:37:36.198Z,1.30
2023-08-08T20:40:03.803Z,1.30
2023-08-08T20:42:31.083Z,1.38
2023-08-08T20:44:58.396Z,1.23
2023-08-08T20:47:25.747Z,1.10
2023-08-08T20:49:53.347Z,1.52
2023-08-08T20:52:22.008Z,1.50
2023-08-08T20:54:50.378Z,1.38
2023-08-08T20:57:17.686Z,1.10
2023-08-08T20:59:45.023Z,1.02
2023-08-08T21:02:12.472Z,1.42
2023-08-08T21:04:39.862Z,1.20
2023-08-08T21:07:12.952Z,1.30
2023-08-08T21:09:41.805Z,1.30
2023-08-08T21:12:09.161Z,1.20
2023-08-08T21:14:36.516Z,1.20
2023-08-08T21:17:04.138Z,1.20
2023-08-08T21:19:31.725Z,1.35
2023-08-08T21:21:59.185Z,1.30
2023-08-08T21:24:26.495Z,1.30
2023-08-08T21:26:55.161Z,1.27
2023-08-08T21:29:22.478Z,1.10
2023-08-08T21:31:49.790Z,1.40
2023-08-08T21:34:17.081Z,1.30
2023-08-08T21:36:44.428Z,1.15
2023-08-08T21:39:11.735Z,1.33
2023-08-08T21:41:39.065Z,1.20
2023-08-08T21:44:07.879Z,1.25
2023-08-08T21:46:35.216Z,1.30
2023-08-08T21:49:02.688Z,1.20
2023-08-08T21:51:30.194Z,1.30
2023-08-08T21:53:57.560Z,1.20
2023-08-08T21:56:24.911Z,1.35
2023-08-08T21:58:52.342Z,1.50
2023-08-08T22:01:20.977Z,1.20
2023-08-08T22:03:48.874Z,1.40
2023-08-08T22:06:16.200Z,1.38
2023-08-08T22:08:43.572Z,1.30
2023-08-08T22:11:11.291Z,1.30
2023-08-08T22:13:38.854Z,1.20
2023-08-08T22:16:06.216Z,1.30
2023-08-08T22:18:34.990Z,1.40
2023-08-08T22:21:02.496Z,1.17
2023-08-08T22:23:29.828Z,1.20
2023-08-08T22:25:57.108Z,1.25
2023-08-08T22:28:24.417Z,1.25
2023-08-08T22:30:53.130Z,1.05
2023-08-08T22:33:20.833Z,1.42
2023-08-08T22:35:49.470Z,1.20
2023-08-08T22:38:17.366Z,1.15
2023-08-08T22:40:45.591Z,1.48
2023-08-08T22:43:14.320Z,1.27
2023-08-08T22:45:41.610Z,1.20
2023-08-08T22:48:08.895Z,1.10
2023-08-08T22:50:37.147Z,1.35
2023-08-08T22:53:05.865Z,1.40
2023-08-08T22:55:33.155Z,1.42
2023-08-08T22:58:00.413Z,1.25
2023-08-08T23:00:27.691Z,1.30
2023-08-08T23:02:55.127Z,1.50
2023-08-08T23:05:22.482Z,1.30
2023-08-08T23:07:49.756Z,1.20
2023-08-08T23:10:18.401Z,1.02
2023-08-08T23:12:45.760Z,1.30
2023-08-08T23:15:13.037Z,1.10
2023-08-08T23:17:40.341Z,1.50
2023-08-08T23:20:09.379Z,1.50
2023-08-08T23:22:36.708Z,1.42
2023-08-08T23:25:04.435Z,1.10
2023-08-08T23:27:33.065Z,1.40
2023-08-08T23:30:00.361Z,1.25
2023-08-08T23:32:27.712Z,1.23
2023-08-08T23:34:55.032Z,1.50
2023-08-08T23:37:22.360Z,1.23
2023-08-08T23:39:49.658Z,1.40
2023-08-08T23:42:16.948Z,1.10
2023-08-08T23:44:45.548Z,1.40
2023-08-08T23:47:12.867Z,1.30
2023-08-08T23:49:40.166Z,1.30
2023-08-08T23:52:07.713Z,1.40
2023-08-08T23:54:35.034Z,1.30
2023-08-08T23:57:02.668Z,1.38
2023-08-08T23:59:30.139Z,1.20
